DAL24W PHNL-KLAX
Flight info
| Callsign | DAL24W |
|---|---|
| Flight time | N/A |
| Altitude | 39000 |
| Route | MKK5 CODDY EBBER R577 ERROT/N0479F410 R577 ELKEY RYDRR2 |
| Aircraft | A359/H-SDE2E3GHIJ3J4J5LM1ORWXY/LB1D1 |
Departure
| Time | 2026-05-06 10:22 |
|---|---|
| Airport | Daniel K. Inouye International Airport (PHNL) |
Arrival
| Time | N/A |
|---|---|
| Airport | Los Angeles International Airport (KLAX) |
| Time | Latitude | Longitude | Altitude | Speed | Heading |
|---|---|---|---|---|---|
| 2026-05-06 10:21 | 21.36038 | -157.62349 | 10279 ft | 302 kts | 88° |
| 2026-05-06 10:22 | 21.36116 | -157.60023 | 10646 ft | 321 kts | 88° |
| 2026-05-06 10:22 | 21.36196 | -157.57598 | 10982 ft | 338 kts | 88° |
| 2026-05-06 10:22 | 21.36280 | -157.55014 | 11318 ft | 354 kts | 88° |
| 2026-05-06 10:22 | 21.36367 | -157.52318 | 11643 ft | 369 kts | 88° |
| 2026-05-06 10:23 | 21.36457 | -157.49528 | 12025 ft | 379 kts | 88° |
| 2026-05-06 10:23 | 21.36549 | -157.46676 | 12538 ft | 385 kts | 88° |
| 2026-05-06 10:23 | 21.36642 | -157.43789 | 13059 ft | 390 kts | 88° |
| 2026-05-06 10:23 | 21.36735 | -157.40852 | 13605 ft | 395 kts | 88° |
| 2026-05-06 10:24 | 21.36829 | -157.37898 | 14106 ft | 399 kts | 88° |
| 2026-05-06 10:24 | 21.36923 | -157.34907 | 14562 ft | 403 kts | 88° |
| 2026-05-06 10:24 | 21.37017 | -157.31886 | 15040 ft | 406 kts | 88° |
| 2026-05-06 10:24 | 21.37111 | -157.28879 | 15518 ft | 409 kts | 88° |
| 2026-05-06 10:25 | 21.37205 | -157.25816 | 15993 ft | 413 kts | 88° |
| 2026-05-06 10:25 | 21.37300 | -157.22724 | 16473 ft | 416 kts | 88° |
| 2026-05-06 10:25 | 21.37395 | -157.19617 | 16952 ft | 419 kts | 88° |
| 2026-05-06 10:25 | 21.37491 | -157.16480 | 17428 ft | 422 kts | 88° |
| 2026-05-06 10:26 | 21.37587 | -157.13312 | 17907 ft | 426 kts | 88° |
| 2026-05-06 10:26 | 21.37682 | -157.10126 | 18370 ft | 429 kts | 88° |
| 2026-05-06 10:26 | 21.37778 | -157.06912 | 18785 ft | 432 kts | 88° |
| 2026-05-06 10:26 | 21.37873 | -157.03676 | 19205 ft | 435 kts | 88° |
| 2026-05-06 10:27 | 21.37969 | -157.00417 | 19636 ft | 437 kts | 88° |
| 2026-05-06 10:27 | 21.38065 | -156.97134 | 20068 ft | 440 kts | 88° |
| 2026-05-06 10:27 | 21.38161 | -156.93843 | 20500 ft | 443 kts | 88° |
| 2026-05-06 10:27 | 21.38255 | -156.90566 | 20939 ft | 446 kts | 88° |
| 2026-05-06 10:28 | 21.38351 | -156.87235 | 21376 ft | 449 kts | 88° |
| 2026-05-06 10:28 | 21.38446 | -156.83870 | 21820 ft | 452 kts | 88° |
| 2026-05-06 10:28 | 21.38542 | -156.80493 | 22253 ft | 454 kts | 88° |
| 2026-05-06 10:28 | 21.38638 | -156.77089 | 22689 ft | 457 kts | 88° |
| 2026-05-06 10:29 | 21.38733 | -156.73668 | 23124 ft | 460 kts | 88° |
| 2026-05-06 10:29 | 21.38828 | -156.70219 | 23559 ft | 463 kts | 88° |
| 2026-05-06 10:29 | 21.38924 | -156.66750 | 23938 ft | 466 kts | 88° |
| 2026-05-06 10:29 | 21.39018 | -156.63263 | 24323 ft | 469 kts | 88° |
| 2026-05-06 10:30 | 21.39113 | -156.59753 | 24729 ft | 471 kts | 88° |
| 2026-05-06 10:30 | 21.39207 | -156.56271 | 25148 ft | 474 kts | 88° |
| 2026-05-06 10:30 | 21.39301 | -156.52721 | 25593 ft | 477 kts | 88° |
| 2026-05-06 10:30 | 21.39396 | -156.49110 | 26045 ft | 480 kts | 88° |
| 2026-05-06 10:31 | 21.39489 | -156.45569 | 26467 ft | 482 kts | 88° |
| 2026-05-06 10:31 | 21.39583 | -156.41962 | 26927 ft | 485 kts | 88° |
| 2026-05-06 10:31 | 21.39676 | -156.38335 | 27364 ft | 488 kts | 88° |
| 2026-05-06 10:31 | 21.39766 | -156.34795 | 27795 ft | 491 kts | 88° |
| 2026-05-06 10:32 | 21.39859 | -156.31120 | 28225 ft | 494 kts | 88° |
| 2026-05-06 10:32 | 21.39952 | -156.27428 | 28643 ft | 497 kts | 88° |
| 2026-05-06 10:32 | 21.40045 | -156.23713 | 29053 ft | 500 kts | 88° |
| 2026-05-06 10:32 | 21.40137 | -156.19972 | 29452 ft | 503 kts | 88° |
| 2026-05-06 10:33 | 21.40229 | -156.16195 | 29847 ft | 506 kts | 88° |
| 2026-05-06 10:33 | 21.40321 | -156.12412 | 30208 ft | 509 kts | 88° |
| 2026-05-06 10:33 | 21.40412 | -156.08591 | 30499 ft | 512 kts | 88° |
| 2026-05-06 10:33 | 21.40503 | -156.04760 | 30769 ft | 516 kts | 88° |
| 2026-05-06 10:34 | 21.40594 | -156.00893 | 31026 ft | 519 kts | 88° |
| 2026-05-06 10:34 | 21.40685 | -155.97005 | 31306 ft | 522 kts | 88° |
| 2026-05-06 10:34 | 21.40774 | -155.93105 | 31569 ft | 525 kts | 88° |
| 2026-05-06 10:34 | 21.40864 | -155.89165 | 31821 ft | 528 kts | 88° |
| 2026-05-06 10:35 | 21.40954 | -155.85210 | 32079 ft | 531 kts | 88° |
| 2026-05-06 10:35 | 21.41042 | -155.81247 | 32445 ft | 531 kts | 88° |
| 2026-05-06 10:35 | 21.41130 | -155.77282 | 32814 ft | 531 kts | 88° |
| 2026-05-06 10:35 | 21.41215 | -155.73372 | 33143 ft | 532 kts | 88° |
| 2026-05-06 10:36 | 21.41301 | -155.69407 | 33476 ft | 532 kts | 88° |
| 2026-05-06 10:36 | 21.41386 | -155.65420 | 33802 ft | 533 kts | 88° |
| 2026-05-06 10:36 | 21.41471 | -155.61427 | 34153 ft | 533 kts | 88° |
| 2026-05-06 10:36 | 21.41554 | -155.57450 | 34431 ft | 533 kts | 89° |
| 2026-05-06 10:37 | 21.41637 | -155.53463 | 34722 ft | 533 kts | 89° |
| 2026-05-06 10:37 | 21.41718 | -155.49482 | 35020 ft | 533 kts | 89° |
| 2026-05-06 10:37 | 21.41799 | -155.45509 | 35295 ft | 534 kts | 89° |
| 2026-05-06 10:37 | 21.41878 | -155.41521 | 35573 ft | 534 kts | 89° |
| 2026-05-06 10:38 | 21.41957 | -155.37537 | 35837 ft | 534 kts | 89° |
| 2026-05-06 10:38 | 21.42035 | -155.33550 | 36099 ft | 534 kts | 89° |
| 2026-05-06 10:38 | 21.42112 | -155.29554 | 36359 ft | 535 kts | 89° |
| 2026-05-06 10:38 | 21.42187 | -155.25606 | 36616 ft | 535 kts | 89° |
| 2026-05-06 10:39 | 21.42262 | -155.21605 | 36865 ft | 535 kts | 89° |
| 2026-05-06 10:39 | 21.42337 | -155.17606 | 37113 ft | 535 kts | 89° |
| 2026-05-06 10:39 | 21.42540 | -155.13619 | 37330 ft | 536 kts | 82° |
| 2026-05-06 10:39 | 21.43032 | -155.09694 | 37573 ft | 536 kts | 81° |
| 2026-05-06 10:40 | 21.43593 | -155.05740 | 37811 ft | 536 kts | 81° |
| 2026-05-06 10:40 | 21.44185 | -155.01784 | 38033 ft | 536 kts | 80° |
| 2026-05-06 10:40 | 21.44789 | -154.97839 | 38254 ft | 536 kts | 80° |
| 2026-05-06 10:40 | 21.45406 | -154.93826 | 38362 ft | 539 kts | 80° |
| 2026-05-06 10:41 | 21.46007 | -154.89897 | 38544 ft | 540 kts | 81° |
| 2026-05-06 10:41 | 21.46608 | -154.85929 | 38767 ft | 539 kts | 81° |
| 2026-05-06 10:41 | 21.47208 | -154.81946 | 38949 ft | 539 kts | 81° |
| 2026-05-06 10:41 | 21.47804 | -154.77966 | 39051 ft | 540 kts | 81° |
| 2026-05-06 10:42 | 21.48992 | -154.69994 | 39066 ft | 540 kts | 81° |
| 2026-05-06 10:42 | 21.50168 | -154.62076 | 39071 ft | 540 kts | 81° |
| 2026-05-06 10:43 | 21.51348 | -154.54107 | 39076 ft | 540 kts | 81° |
| 2026-05-06 10:44 | 21.53113 | -154.42139 | 39082 ft | 540 kts | 81° |
| 2026-05-06 10:44 | 21.54283 | -154.34167 | 39078 ft | 540 kts | 81° |
| 2026-05-06 10:45 | 21.55452 | -154.26181 | 39081 ft | 541 kts | 81° |
| 2026-05-06 10:45 | 21.56616 | -154.18206 | 39078 ft | 541 kts | 81° |
| 2026-05-06 10:46 | 21.57770 | -154.10265 | 39073 ft | 541 kts | 81° |
| 2026-05-06 10:46 | 21.58929 | -154.02266 | 39074 ft | 541 kts | 81° |
| 2026-05-06 10:47 | 21.60083 | -153.94268 | 39075 ft | 541 kts | 81° |
| 2026-05-06 10:47 | 21.61235 | -153.86263 | 39078 ft | 541 kts | 81° |
| 2026-05-06 10:48 | 21.62381 | -153.78267 | 39067 ft | 542 kts | 81° |
| 2026-05-06 10:48 | 21.63524 | -153.70273 | 39075 ft | 542 kts | 81° |
| 2026-05-06 10:49 | 21.64664 | -153.62260 | 39083 ft | 542 kts | 81° |
| 2026-05-06 10:49 | 21.65795 | -153.54292 | 39071 ft | 542 kts | 81° |
| 2026-05-06 10:50 | 21.66926 | -153.46287 | 39071 ft | 542 kts | 81° |
| 2026-05-06 10:50 | 21.68057 | -153.38257 | 39078 ft | 542 kts | 81° |
| 2026-05-06 10:51 | 21.69183 | -153.30240 | 39077 ft | 543 kts | 81° |
| 2026-05-06 10:51 | 21.70307 | -153.22203 | 39070 ft | 543 kts | 81° |
| 2026-05-06 10:52 | 21.71904 | -153.14334 | 39072 ft | 541 kts | 68° |
| 2026-05-06 10:52 | 21.75145 | -153.07056 | 39079 ft | 538 kts | 59° |
| 2026-05-06 10:53 | 21.78728 | -152.99972 | 39077 ft | 538 kts | 58° |
| 2026-05-06 10:53 | 21.82347 | -152.92903 | 39074 ft | 538 kts | 59° |
| 2026-05-06 10:54 | 21.85912 | -152.85871 | 39074 ft | 538 kts | 59° |
| 2026-05-06 10:54 | 21.89473 | -152.78793 | 39075 ft | 538 kts | 59° |
| 2026-05-06 10:55 | 21.93056 | -152.71653 | 39075 ft | 538 kts | 59° |
| 2026-05-06 10:55 | 21.96591 | -152.64598 | 39073 ft | 538 kts | 59° |
| 2026-05-06 10:56 | 22.00141 | -152.57509 | 39077 ft | 538 kts | 59° |
| 2026-05-06 10:56 | 22.03695 | -152.50400 | 39078 ft | 538 kts | 59° |
| 2026-05-06 10:57 | 22.07249 | -152.43283 | 39077 ft | 538 kts | 59° |
| 2026-05-06 10:57 | 22.10795 | -152.36172 | 39082 ft | 538 kts | 59° |
| 2026-05-06 10:58 | 22.14316 | -152.29102 | 39073 ft | 538 kts | 59° |
| 2026-05-06 10:58 | 22.17862 | -152.21970 | 39076 ft | 538 kts | 59° |
| 2026-05-06 10:59 | 22.21396 | -152.14854 | 39074 ft | 538 kts | 59° |
| 2026-05-06 10:59 | 22.24931 | -152.07725 | 39075 ft | 538 kts | 59° |
| 2026-05-06 11:00 | 22.28462 | -152.00597 | 39080 ft | 538 kts | 59° |
| 2026-05-06 11:00 | 22.31961 | -151.93521 | 39078 ft | 537 kts | 59° |
| 2026-05-06 11:01 | 22.35487 | -151.86388 | 39075 ft | 537 kts | 59° |
| 2026-05-06 11:01 | 22.38989 | -151.79255 | 39075 ft | 537 kts | 60° |
| 2026-05-06 11:02 | 22.42478 | -151.72109 | 39075 ft | 537 kts | 60° |
| 2026-05-06 11:02 | 22.45379 | -151.66166 | 39076 ft | 537 kts | 60° |
| 2026-05-06 11:03 | 22.48866 | -151.59023 | 39077 ft | 537 kts | 60° |
| 2026-05-06 11:03 | 22.52353 | -151.51872 | 39078 ft | 537 kts | 60° |
| 2026-05-06 11:04 | 22.55836 | -151.44720 | 39082 ft | 537 kts | 60° |
| 2026-05-06 11:04 | 22.59316 | -151.37565 | 39082 ft | 537 kts | 60° |
| 2026-05-06 11:05 | 22.62772 | -151.30447 | 39078 ft | 537 kts | 60° |
| 2026-05-06 11:05 | 22.66248 | -151.23277 | 39085 ft | 537 kts | 60° |
| 2026-05-06 11:06 | 22.69723 | -151.16101 | 39085 ft | 537 kts | 60° |
| 2026-05-06 11:06 | 22.73181 | -151.08949 | 39078 ft | 537 kts | 60° |
| 2026-05-06 11:07 | 22.76641 | -151.01783 | 39079 ft | 537 kts | 60° |
| 2026-05-06 11:07 | 22.80083 | -150.94642 | 39086 ft | 537 kts | 60° |
| 2026-05-06 11:08 | 22.83534 | -150.87475 | 39082 ft | 537 kts | 60° |
| 2026-05-06 11:08 | 22.86986 | -150.80294 | 39085 ft | 536 kts | 60° |
| 2026-05-06 11:09 | 22.90432 | -150.73115 | 39077 ft | 536 kts | 60° |
| 2026-05-06 11:09 | 22.93885 | -150.65913 | 39091 ft | 536 kts | 60° |
| 2026-05-06 11:10 | 22.97299 | -150.58779 | 39084 ft | 536 kts | 60° |
| 2026-05-06 11:10 | 23.00736 | -150.51590 | 39084 ft | 535 kts | 60° |
| 2026-05-06 11:11 | 23.04165 | -150.44405 | 39084 ft | 535 kts | 60° |
| 2026-05-06 11:11 | 23.07571 | -150.37257 | 39083 ft | 535 kts | 60° |
| 2026-05-06 11:12 | 23.10989 | -150.30076 | 39085 ft | 535 kts | 60° |
| 2026-05-06 11:12 | 23.14402 | -150.22893 | 39085 ft | 535 kts | 60° |
| 2026-05-06 11:13 | 23.17810 | -150.15711 | 39087 ft | 534 kts | 60° |
| 2026-05-06 11:13 | 23.21216 | -150.08523 | 39087 ft | 534 kts | 60° |
| 2026-05-06 11:14 | 23.24618 | -150.01333 | 39086 ft | 534 kts | 60° |
| 2026-05-06 11:14 | 23.28000 | -149.94172 | 39090 ft | 535 kts | 60° |
| 2026-05-06 11:15 | 23.31398 | -149.86970 | 39087 ft | 534 kts | 60° |
| 2026-05-06 11:15 | 23.34785 | -149.79779 | 39089 ft | 534 kts | 60° |
| 2026-05-06 11:16 | 23.38170 | -149.72581 | 39086 ft | 534 kts | 60° |
| 2026-05-06 11:16 | 23.41548 | -149.65388 | 39089 ft | 534 kts | 60° |
| 2026-05-06 11:17 | 23.44926 | -149.58184 | 39095 ft | 533 kts | 60° |
| 2026-05-06 11:17 | 23.48282 | -149.51017 | 39093 ft | 533 kts | 60° |
| 2026-05-06 11:18 | 23.51650 | -149.43813 | 39092 ft | 533 kts | 61° |
| 2026-05-06 11:18 | 23.55010 | -149.36617 | 39092 ft | 533 kts | 61° |
| 2026-05-06 11:19 | 23.58377 | -149.29393 | 39094 ft | 533 kts | 61° |
| 2026-05-06 11:19 | 23.61733 | -149.22183 | 39094 ft | 533 kts | 61° |
| 2026-05-06 11:20 | 23.65082 | -149.14978 | 39093 ft | 533 kts | 61° |
| 2026-05-06 11:20 | 23.68435 | -149.07751 | 39095 ft | 533 kts | 61° |
| 2026-05-06 11:21 | 23.71153 | -149.01885 | 39096 ft | 533 kts | 61° |
| 2026-05-06 11:21 | 23.74503 | -148.94646 | 39100 ft | 533 kts | 61° |
| 2026-05-06 11:22 | 23.77821 | -148.87466 | 39095 ft | 533 kts | 61° |
| 2026-05-06 11:22 | 23.81158 | -148.80233 | 39096 ft | 532 kts | 61° |
| 2026-05-06 11:23 | 23.84488 | -148.73004 | 39101 ft | 532 kts | 61° |
| 2026-05-06 11:23 | 23.87810 | -148.65783 | 39102 ft | 532 kts | 61° |
| 2026-05-06 11:24 | 23.91133 | -148.58547 | 39100 ft | 532 kts | 61° |
| 2026-05-06 11:24 | 23.94449 | -148.51314 | 39100 ft | 532 kts | 61° |
| 2026-05-06 11:25 | 23.97758 | -148.44087 | 39104 ft | 531 kts | 61° |
| 2026-05-06 11:25 | 24.01069 | -148.36845 | 39105 ft | 531 kts | 61° |
| 2026-05-06 11:26 | 24.04344 | -148.29669 | 39107 ft | 531 kts | 61° |
| 2026-05-06 11:26 | 24.07648 | -148.22419 | 39104 ft | 531 kts | 62° |
| 2026-05-06 11:27 | 24.10939 | -148.15188 | 39109 ft | 531 kts | 62° |
| 2026-05-06 11:27 | 24.14234 | -148.07935 | 39109 ft | 531 kts | 62° |
| 2026-05-06 11:28 | 24.17519 | -148.00693 | 39108 ft | 531 kts | 62° |
| 2026-05-06 11:28 | 24.20802 | -147.93445 | 39107 ft | 531 kts | 62° |
| 2026-05-06 11:29 | 24.24077 | -147.86202 | 39107 ft | 530 kts | 62° |
| 2026-05-06 11:29 | 24.27350 | -147.78952 | 39108 ft | 530 kts | 62° |
| 2026-05-06 11:30 | 24.30618 | -147.71704 | 39112 ft | 530 kts | 62° |
| 2026-05-06 11:30 | 24.33861 | -147.64498 | 39115 ft | 530 kts | 62° |
| 2026-05-06 11:31 | 24.37119 | -147.57248 | 39116 ft | 530 kts | 62° |
| 2026-05-06 11:31 | 24.40382 | -147.49976 | 39116 ft | 530 kts | 62° |
| 2026-05-06 11:32 | 24.43635 | -147.42716 | 39116 ft | 530 kts | 62° |
| 2026-05-06 11:32 | 24.46887 | -147.35444 | 39116 ft | 530 kts | 62° |
| 2026-05-06 11:33 | 24.50135 | -147.28171 | 39121 ft | 530 kts | 62° |
| 2026-05-06 11:33 | 24.53383 | -147.20886 | 39119 ft | 530 kts | 62° |
| 2026-05-06 11:34 | 24.56611 | -147.13633 | 39123 ft | 530 kts | 62° |
| 2026-05-06 11:34 | 24.59845 | -147.06356 | 39122 ft | 530 kts | 62° |
| 2026-05-06 11:35 | 24.63087 | -146.99050 | 39126 ft | 530 kts | 62° |
| 2026-05-06 11:35 | 24.66296 | -146.91808 | 39127 ft | 530 kts | 62° |
| 2026-05-06 11:36 | 24.69523 | -146.84511 | 39124 ft | 530 kts | 62° |
| 2026-05-06 11:36 | 24.72750 | -146.77204 | 39124 ft | 530 kts | 62° |
| 2026-05-06 11:37 | 24.75973 | -146.69892 | 39128 ft | 530 kts | 62° |
| 2026-05-06 11:37 | 24.79177 | -146.62614 | 39128 ft | 530 kts | 62° |
| 2026-05-06 11:38 | 24.82386 | -146.55311 | 39128 ft | 530 kts | 62° |
| 2026-05-06 11:38 | 24.85597 | -146.47993 | 39131 ft | 530 kts | 62° |
| 2026-05-06 11:39 | 24.88788 | -146.40707 | 39130 ft | 530 kts | 62° |
| 2026-05-06 11:39 | 24.91986 | -146.33393 | 39130 ft | 530 kts | 62° |
| 2026-05-06 11:40 | 24.95182 | -146.26074 | 39134 ft | 529 kts | 62° |
| 2026-05-06 11:40 | 24.98371 | -146.18758 | 39134 ft | 529 kts | 62° |
| 2026-05-06 11:41 | 25.01538 | -146.11480 | 39137 ft | 529 kts | 62° |
| 2026-05-06 11:41 | 25.04717 | -146.04164 | 39139 ft | 529 kts | 62° |
| 2026-05-06 11:42 | 25.07896 | -145.96834 | 39135 ft | 529 kts | 62° |
| 2026-05-06 11:42 | 25.11065 | -145.89515 | 39139 ft | 529 kts | 62° |
| 2026-05-06 11:43 | 25.14236 | -145.82180 | 39139 ft | 529 kts | 63° |
| 2026-05-06 11:43 | 25.17401 | -145.74847 | 39138 ft | 528 kts | 63° |
| 2026-05-06 11:44 | 25.22121 | -145.63889 | 39145 ft | 528 kts | 63° |
| 2026-05-06 11:44 | 25.25278 | -145.56544 | 39139 ft | 528 kts | 63° |
| 2026-05-06 11:45 | 25.28425 | -145.49212 | 39320 ft | 528 kts | 63° |
| 2026-05-06 11:45 | 25.29997 | -145.45544 | 39517 ft | 528 kts | 63° |
| 2026-05-06 11:45 | 25.31566 | -145.41875 | 39686 ft | 528 kts | 63° |
| 2026-05-06 11:46 | 25.33137 | -145.38198 | 39865 ft | 528 kts | 63° |
| 2026-05-06 11:46 | 25.34710 | -145.34511 | 40026 ft | 528 kts | 63° |
| 2026-05-06 11:46 | 25.36274 | -145.30845 | 40186 ft | 529 kts | 63° |
| 2026-05-06 11:46 | 25.37842 | -145.27167 | 40336 ft | 529 kts | 63° |
| 2026-05-06 11:47 | 25.39413 | -145.23478 | 40505 ft | 529 kts | 63° |
| 2026-05-06 11:47 | 25.40451 | -145.21039 | 40596 ft | 529 kts | 63° |
| 2026-05-06 11:47 | 25.42016 | -145.17362 | 40753 ft | 529 kts | 63° |
| 2026-05-06 11:47 | 25.44096 | -145.12468 | 40959 ft | 529 kts | 63° |
| 2026-05-06 11:48 | 25.45658 | -145.08789 | 41098 ft | 529 kts | 63° |
| 2026-05-06 11:48 | 25.47221 | -145.05104 | 41149 ft | 530 kts | 63° |
| 2026-05-06 11:48 | 25.49585 | -144.99525 | 41155 ft | 529 kts | 63° |
| 2026-05-06 11:49 | 25.52183 | -144.93385 | 41153 ft | 528 kts | 63° |
| 2026-05-06 11:49 | 25.55296 | -144.86017 | 41153 ft | 528 kts | 63° |
| 2026-05-06 11:50 | 25.58354 | -144.78768 | 41155 ft | 528 kts | 63° |
| 2026-05-06 11:50 | 25.61459 | -144.71395 | 41156 ft | 528 kts | 63° |
| 2026-05-06 11:51 | 25.64562 | -144.64013 | 41159 ft | 528 kts | 63° |
| 2026-05-06 11:51 | 25.67653 | -144.56648 | 41160 ft | 527 kts | 63° |
| 2026-05-06 11:52 | 25.70745 | -144.49268 | 41161 ft | 527 kts | 63° |
| 2026-05-06 11:52 | 25.73827 | -144.41898 | 41158 ft | 527 kts | 63° |
| 2026-05-06 11:53 | 25.76910 | -144.34513 | 41160 ft | 527 kts | 63° |
| 2026-05-06 11:53 | 25.79968 | -144.27177 | 41161 ft | 527 kts | 63° |
| 2026-05-06 11:54 | 25.83036 | -144.19802 | 41161 ft | 526 kts | 63° |
| 2026-05-06 11:54 | 25.86107 | -144.12407 | 41162 ft | 526 kts | 63° |
| 2026-05-06 11:55 | 25.89166 | -144.05030 | 41165 ft | 525 kts | 63° |
| 2026-05-06 11:55 | 25.92221 | -143.97650 | 41165 ft | 525 kts | 63° |
| 2026-05-06 11:56 | 25.95249 | -143.90320 | 41170 ft | 525 kts | 63° |
| 2026-05-06 11:56 | 25.98289 | -143.82950 | 41172 ft | 524 kts | 63° |
| 2026-05-06 11:57 | 26.01323 | -143.75582 | 41171 ft | 524 kts | 63° |
| 2026-05-06 11:57 | 26.04356 | -143.68201 | 41170 ft | 523 kts | 63° |
| 2026-05-06 11:58 | 26.07376 | -143.60842 | 41171 ft | 522 kts | 63° |
| 2026-05-06 11:58 | 26.10386 | -143.53491 | 41173 ft | 522 kts | 63° |
| 2026-05-06 11:59 | 26.13376 | -143.46181 | 41175 ft | 522 kts | 63° |
| 2026-05-06 11:59 | 26.16377 | -143.38828 | 41173 ft | 521 kts | 63° |
| 2026-05-06 12:00 | 26.19371 | -143.31479 | 41178 ft | 521 kts | 63° |
| 2026-05-06 12:00 | 26.22356 | -143.24140 | 41174 ft | 520 kts | 63° |
| 2026-05-06 12:01 | 26.25333 | -143.16807 | 41181 ft | 520 kts | 63° |
| 2026-05-06 12:01 | 26.28306 | -143.09471 | 41181 ft | 519 kts | 63° |
| 2026-05-06 12:02 | 26.30594 | -143.03816 | 41186 ft | 519 kts | 64° |
| 2026-05-06 12:02 | 26.33558 | -142.96480 | 41176 ft | 519 kts | 64° |
| 2026-05-06 12:03 | 26.36519 | -142.89139 | 41184 ft | 519 kts | 64° |
| 2026-05-06 12:03 | 26.39460 | -142.81835 | 41184 ft | 518 kts | 64° |
| 2026-05-06 12:04 | 26.42406 | -142.74502 | 41186 ft | 518 kts | 64° |
| 2026-05-06 12:04 | 26.45352 | -142.67160 | 41185 ft | 518 kts | 64° |
| 2026-05-06 12:05 | 26.48289 | -142.59825 | 41185 ft | 517 kts | 64° |
| 2026-05-06 12:05 | 26.51206 | -142.52529 | 41193 ft | 517 kts | 64° |
| 2026-05-06 12:06 | 26.54132 | -142.45194 | 41186 ft | 516 kts | 64° |
| 2026-05-06 12:06 | 26.57054 | -142.37860 | 41190 ft | 516 kts | 64° |
| 2026-05-06 12:07 | 26.59968 | -142.30530 | 41197 ft | 515 kts | 64° |
| 2026-05-06 12:07 | 26.62858 | -142.23249 | 41194 ft | 515 kts | 64° |
| 2026-05-06 12:08 | 26.65760 | -142.15923 | 41198 ft | 515 kts | 64° |
| 2026-05-06 12:08 | 26.68653 | -142.08606 | 41193 ft | 514 kts | 64° |
| 2026-05-06 12:09 | 26.71549 | -142.01271 | 41195 ft | 514 kts | 64° |
| 2026-05-06 12:09 | 26.74432 | -141.93954 | 41199 ft | 514 kts | 64° |
| 2026-05-06 12:10 | 26.77314 | -141.86626 | 41198 ft | 514 kts | 64° |
| 2026-05-06 12:10 | 26.80174 | -141.79341 | 41202 ft | 514 kts | 64° |
| 2026-05-06 12:11 | 26.83063 | -141.71969 | 41202 ft | 513 kts | 64° |
| 2026-05-06 12:11 | 26.85910 | -141.64689 | 41204 ft | 513 kts | 64° |
| 2026-05-06 12:12 | 26.88776 | -141.57350 | 41205 ft | 513 kts | 64° |
| 2026-05-06 12:12 | 26.91631 | -141.50026 | 41204 ft | 513 kts | 64° |
| 2026-05-06 12:13 | 26.91888 | -141.49365 | 41205 ft | 513 kts | 64° |
| 2026-05-06 12:13 | 26.94160 | -141.43522 | 41204 ft | 513 kts | 64° |
| 2026-05-06 12:14 | 26.97010 | -141.36183 | 41207 ft | 513 kts | 64° |
| 2026-05-06 12:14 | 26.99858 | -141.28840 | 41208 ft | 513 kts | 64° |
| 2026-05-06 12:15 | 27.02697 | -141.21505 | 41209 ft | 513 kts | 64° |
| 2026-05-06 12:15 | 27.05526 | -141.14180 | 41206 ft | 512 kts | 64° |
| 2026-05-06 12:16 | 27.08360 | -141.06830 | 41208 ft | 512 kts | 64° |
| 2026-05-06 12:16 | 27.11170 | -140.99528 | 41209 ft | 512 kts | 64° |
| 2026-05-06 12:17 | 27.13993 | -140.92180 | 41213 ft | 512 kts | 64° |
| 2026-05-06 12:17 | 27.16812 | -140.84826 | 41200 ft | 512 kts | 64° |
| 2026-05-06 12:18 | 27.19624 | -140.77479 | 41214 ft | 512 kts | 64° |
| 2026-05-06 12:18 | 27.22435 | -140.70120 | 41216 ft | 512 kts | 64° |
| 2026-05-06 12:19 | 27.25237 | -140.62771 | 41210 ft | 512 kts | 64° |
| 2026-05-06 12:19 | 27.28037 | -140.55411 | 41211 ft | 512 kts | 64° |
| 2026-05-06 12:20 | 27.30832 | -140.48055 | 41217 ft | 512 kts | 65° |
| 2026-05-06 12:20 | 27.33544 | -140.40900 | 41220 ft | 512 kts | 65° |
| 2026-05-06 12:21 | 27.36331 | -140.33535 | 41214 ft | 511 kts | 65° |
| 2026-05-06 12:21 | 27.39111 | -140.26177 | 41221 ft | 511 kts | 65° |
| 2026-05-06 12:22 | 27.41861 | -140.18882 | 41223 ft | 511 kts | 65° |
| 2026-05-06 12:22 | 27.44640 | -140.11497 | 41218 ft | 511 kts | 65° |
| 2026-05-06 12:23 | 27.47408 | -140.04127 | 41217 ft | 511 kts | 65° |
| 2026-05-06 12:23 | 27.50087 | -139.96979 | 41229 ft | 511 kts | 65° |
| 2026-05-06 12:24 | 27.52610 | -139.90238 | 41224 ft | 511 kts | 65° |
| 2026-05-06 12:24 | 27.55403 | -139.82760 | 41220 ft | 511 kts | 65° |
| 2026-05-06 12:25 | 27.58231 | -139.75175 | 41225 ft | 511 kts | 65° |
| 2026-05-06 12:25 | 27.60993 | -139.67751 | 41221 ft | 511 kts | 65° |
| 2026-05-06 12:26 | 27.63746 | -139.60335 | 41221 ft | 511 kts | 65° |
| 2026-05-06 12:26 | 27.66485 | -139.52946 | 41228 ft | 510 kts | 65° |
| 2026-05-06 12:27 | 27.69220 | -139.45553 | 41229 ft | 510 kts | 65° |
| 2026-05-06 12:27 | 27.71950 | -139.38157 | 41230 ft | 510 kts | 65° |
| 2026-05-06 12:28 | 27.74662 | -139.30798 | 41230 ft | 510 kts | 65° |
| 2026-05-06 12:28 | 27.77378 | -139.23411 | 41233 ft | 510 kts | 65° |
| 2026-05-06 12:29 | 27.80103 | -139.15986 | 41232 ft | 510 kts | 65° |
| 2026-05-06 12:29 | 27.82811 | -139.08596 | 41230 ft | 510 kts | 65° |
| 2026-05-06 12:30 | 27.85518 | -139.01191 | 41231 ft | 510 kts | 65° |
| 2026-05-06 12:30 | 27.88236 | -138.93743 | 41230 ft | 510 kts | 65° |
| 2026-05-06 12:31 | 27.90937 | -138.86325 | 41229 ft | 509 kts | 65° |
| 2026-05-06 12:31 | 27.93639 | -138.78919 | 41233 ft | 509 kts | 66° |
| 2026-05-06 12:32 | 27.96322 | -138.71503 | 41235 ft | 509 kts | 66° |
| 2026-05-06 12:32 | 27.98987 | -138.64116 | 41236 ft | 509 kts | 66° |
| 2026-05-06 12:33 | 28.01648 | -138.56737 | 41233 ft | 509 kts | 66° |
| 2026-05-06 12:33 | 28.04355 | -138.49221 | 41235 ft | 509 kts | 66° |
| 2026-05-06 12:34 | 28.07030 | -138.41782 | 41235 ft | 509 kts | 66° |
| 2026-05-06 12:34 | 28.09705 | -138.34327 | 41238 ft | 509 kts | 66° |
| 2026-05-06 12:35 | 28.12340 | -138.26968 | 41242 ft | 509 kts | 66° |
| 2026-05-06 12:35 | 28.14975 | -138.19594 | 41242 ft | 509 kts | 66° |
| 2026-05-06 12:36 | 28.17667 | -138.12043 | 41242 ft | 509 kts | 66° |
| 2026-05-06 12:36 | 28.20305 | -138.04634 | 41243 ft | 509 kts | 66° |
| 2026-05-06 12:37 | 28.22936 | -137.97226 | 41245 ft | 509 kts | 66° |
| 2026-05-06 12:37 | 28.25603 | -137.89702 | 41245 ft | 509 kts | 66° |
| 2026-05-06 12:38 | 28.28231 | -137.82272 | 41247 ft | 509 kts | 66° |
| 2026-05-06 12:38 | 28.30869 | -137.74800 | 41247 ft | 509 kts | 66° |
| 2026-05-06 12:39 | 28.33504 | -137.67323 | 41248 ft | 509 kts | 66° |
| 2026-05-06 12:39 | 28.36123 | -137.59872 | 41246 ft | 509 kts | 66° |
| 2026-05-06 12:40 | 28.38750 | -137.52386 | 41247 ft | 509 kts | 66° |
| 2026-05-06 12:40 | 28.41371 | -137.44902 | 41246 ft | 510 kts | 66° |
| 2026-05-06 12:41 | 28.43975 | -137.37449 | 41250 ft | 510 kts | 66° |
| 2026-05-06 12:41 | 28.46587 | -137.29958 | 41249 ft | 509 kts | 66° |
| 2026-05-06 12:42 | 28.49195 | -137.22464 | 41249 ft | 509 kts | 66° |
| 2026-05-06 12:42 | 28.51801 | -137.14959 | 41250 ft | 509 kts | 66° |
| 2026-05-06 12:43 | 28.54384 | -137.07509 | 41251 ft | 509 kts | 66° |
| 2026-05-06 12:43 | 28.56975 | -137.00015 | 41251 ft | 509 kts | 66° |
| 2026-05-06 12:44 | 28.59562 | -136.92519 | 41251 ft | 509 kts | 66° |
| 2026-05-06 12:44 | 28.62148 | -136.85011 | 41250 ft | 509 kts | 66° |
| 2026-05-06 12:45 | 28.64732 | -136.77494 | 41255 ft | 508 kts | 66° |
| 2026-05-06 12:46 | 28.68587 | -136.66248 | 41253 ft | 508 kts | 66° |
| 2026-05-06 12:46 | 28.71137 | -136.58788 | 41255 ft | 508 kts | 66° |
| 2026-05-06 12:47 | 28.73698 | -136.51282 | 41256 ft | 507 kts | 66° |
| 2026-05-06 12:47 | 28.75833 | -136.45012 | 41254 ft | 507 kts | 66° |
| 2026-05-06 12:48 | 28.78365 | -136.37562 | 41255 ft | 507 kts | 66° |
| 2026-05-06 12:48 | 28.80904 | -136.30075 | 41255 ft | 506 kts | 66° |
| 2026-05-06 12:49 | 28.83442 | -136.22575 | 41254 ft | 506 kts | 66° |
| 2026-05-06 12:49 | 28.85973 | -136.15082 | 41256 ft | 505 kts | 66° |
| 2026-05-06 12:50 | 28.88492 | -136.07606 | 41257 ft | 505 kts | 66° |
| 2026-05-06 12:50 | 28.91004 | -136.00136 | 41258 ft | 504 kts | 66° |
| 2026-05-06 12:51 | 28.93514 | -135.92656 | 41258 ft | 504 kts | 66° |
| 2026-05-06 12:51 | 28.96016 | -135.85186 | 41256 ft | 503 kts | 66° |
| 2026-05-06 12:52 | 28.98490 | -135.77782 | 41257 ft | 503 kts | 66° |
| 2026-05-06 12:52 | 29.00980 | -135.70313 | 41258 ft | 502 kts | 66° |
| 2026-05-06 12:53 | 29.03462 | -135.62854 | 41261 ft | 502 kts | 67° |
| 2026-05-06 12:53 | 29.05934 | -135.55407 | 41256 ft | 501 kts | 67° |
| 2026-05-06 12:54 | 29.08404 | -135.47951 | 41259 ft | 501 kts | 67° |
| 2026-05-06 12:54 | 29.10864 | -135.40511 | 41260 ft | 500 kts | 67° |
| 2026-05-06 12:55 | 29.13320 | -135.33065 | 41260 ft | 500 kts | 67° |
| 2026-05-06 12:55 | 29.15771 | -135.25620 | 41255 ft | 500 kts | 67° |
| 2026-05-06 12:56 | 29.18200 | -135.18225 | 41262 ft | 499 kts | 67° |
| 2026-05-06 12:56 | 29.20636 | -135.10793 | 41262 ft | 499 kts | 67° |
| 2026-05-06 12:57 | 29.23066 | -135.03362 | 41261 ft | 499 kts | 67° |
| 2026-05-06 12:57 | 29.25499 | -134.95905 | 41260 ft | 498 kts | 67° |
| 2026-05-06 12:58 | 29.27920 | -134.88471 | 41250 ft | 498 kts | 67° |
| 2026-05-06 12:58 | 29.30337 | -134.81033 | 41251 ft | 498 kts | 67° |
| 2026-05-06 12:59 | 29.32747 | -134.73599 | 41274 ft | 498 kts | 67° |
| 2026-05-06 12:59 | 29.35158 | -134.66147 | 41276 ft | 498 kts | 67° |
| 2026-05-06 13:00 | 29.37559 | -134.58708 | 41276 ft | 497 kts | 67° |
| 2026-05-06 13:00 | 29.39721 | -134.51995 | 41263 ft | 497 kts | 68° |
| 2026-05-06 13:01 | 29.42114 | -134.44551 | 41266 ft | 497 kts | 68° |
| 2026-05-06 13:01 | 29.44503 | -134.37102 | 41267 ft | 497 kts | 68° |
| 2026-05-06 13:02 | 29.46886 | -134.29658 | 41261 ft | 497 kts | 68° |
| 2026-05-06 13:02 | 29.49271 | -134.22188 | 41264 ft | 497 kts | 68° |
| 2026-05-06 13:03 | 29.51642 | -134.14745 | 41269 ft | 497 kts | 68° |
| 2026-05-06 13:03 | 29.54001 | -134.07326 | 41265 ft | 497 kts | 68° |
| 2026-05-06 13:04 | 29.56366 | -133.99871 | 41265 ft | 496 kts | 68° |
| 2026-05-06 13:04 | 29.58730 | -133.92402 | 41265 ft | 497 kts | 68° |
| 2026-05-06 13:05 | 29.61086 | -133.84941 | 41262 ft | 497 kts | 68° |
| 2026-05-06 13:05 | 29.63438 | -133.77476 | 41265 ft | 497 kts | 68° |
| 2026-05-06 13:06 | 29.65788 | -133.70003 | 41269 ft | 497 kts | 68° |
| 2026-05-06 13:06 | 29.68116 | -133.62581 | 41263 ft | 496 kts | 68° |
| 2026-05-06 13:07 | 29.70456 | -133.55103 | 41266 ft | 496 kts | 68° |
| 2026-05-06 13:07 | 29.72791 | -133.47625 | 41261 ft | 496 kts | 68° |
| 2026-05-06 13:08 | 29.75122 | -133.40144 | 41264 ft | 496 kts | 68° |
| 2026-05-06 13:08 | 29.77436 | -133.32700 | 41263 ft | 496 kts | 68° |
| 2026-05-06 13:09 | 29.79772 | -133.25165 | 41263 ft | 497 kts | 68° |
| 2026-05-06 13:09 | 29.82095 | -133.17660 | 41262 ft | 497 kts | 68° |
| 2026-05-06 13:10 | 29.84399 | -133.10194 | 41266 ft | 497 kts | 68° |
| 2026-05-06 13:10 | 29.86710 | -133.02691 | 41270 ft | 497 kts | 68° |
| 2026-05-06 13:11 | 29.89000 | -132.95239 | 41263 ft | 497 kts | 68° |
| 2026-05-06 13:11 | 29.91299 | -132.87741 | 41267 ft | 497 kts | 68° |
| 2026-05-06 13:12 | 29.93603 | -132.80212 | 41264 ft | 497 kts | 68° |
| 2026-05-06 13:12 | 29.95896 | -132.72696 | 41266 ft | 497 kts | 68° |
| 2026-05-06 13:13 | 29.98190 | -132.65163 | 41263 ft | 497 kts | 68° |
| 2026-05-06 13:13 | 30.00474 | -132.57644 | 41266 ft | 497 kts | 68° |
| 2026-05-06 13:14 | 30.02741 | -132.50164 | 41261 ft | 497 kts | 68° |
| 2026-05-06 13:14 | 30.05019 | -132.42629 | 41268 ft | 496 kts | 68° |
| 2026-05-06 13:15 | 30.07290 | -132.35100 | 41265 ft | 496 kts | 67° |
| 2026-05-06 13:15 | 30.09556 | -132.27572 | 41267 ft | 496 kts | 67° |
| 2026-05-06 13:16 | 30.11820 | -132.20029 | 41267 ft | 496 kts | 67° |
| 2026-05-06 13:16 | 30.14076 | -132.12497 | 41274 ft | 496 kts | 67° |
| 2026-05-06 13:17 | 30.16326 | -132.04970 | 41273 ft | 496 kts | 67° |
| 2026-05-06 13:17 | 30.18558 | -131.97482 | 41275 ft | 495 kts | 67° |
| 2026-05-06 13:18 | 30.20795 | -131.89960 | 41260 ft | 495 kts | 68° |
| 2026-05-06 13:18 | 30.23028 | -131.82434 | 41265 ft | 495 kts | 67° |
| 2026-05-06 13:19 | 30.25257 | -131.74901 | 41270 ft | 494 kts | 67° |
| 2026-05-06 13:19 | 30.27480 | -131.67372 | 41273 ft | 494 kts | 67° |
| 2026-05-06 13:20 | 30.29701 | -131.59838 | 41270 ft | 494 kts | 67° |
| 2026-05-06 13:20 | 30.31894 | -131.52371 | 41268 ft | 493 kts | 67° |
| 2026-05-06 13:21 | 30.34110 | -131.44804 | 41272 ft | 493 kts | 68° |
| 2026-05-06 13:21 | 30.36300 | -131.37313 | 41270 ft | 493 kts | 68° |
| 2026-05-06 13:22 | 30.38489 | -131.29808 | 41271 ft | 493 kts | 68° |
| 2026-05-06 13:22 | 30.40682 | -131.22268 | 41269 ft | 493 kts | 68° |
| 2026-05-06 13:23 | 30.42864 | -131.14752 | 41272 ft | 492 kts | 68° |
| 2026-05-06 13:23 | 30.45044 | -131.07221 | 41271 ft | 492 kts | 68° |
| 2026-05-06 13:24 | 30.47219 | -130.99690 | 41270 ft | 492 kts | 68° |
| 2026-05-06 13:24 | 30.49376 | -130.92203 | 41273 ft | 492 kts | 68° |
| 2026-05-06 13:25 | 30.51536 | -130.84687 | 41269 ft | 492 kts | 68° |
| 2026-05-06 13:25 | 30.53693 | -130.77161 | 41273 ft | 491 kts | 68° |
| 2026-05-06 13:26 | 30.55847 | -130.69631 | 41270 ft | 491 kts | 68° |
| 2026-05-06 13:26 | 30.57994 | -130.62103 | 41271 ft | 490 kts | 68° |
| 2026-05-06 13:27 | 30.60132 | -130.54590 | 41271 ft | 490 kts | 69° |
| 2026-05-06 13:27 | 30.62266 | -130.47071 | 41269 ft | 490 kts | 69° |
| 2026-05-06 13:28 | 30.64392 | -130.39565 | 41270 ft | 489 kts | 69° |
| 2026-05-06 13:28 | 30.66514 | -130.32052 | 41272 ft | 489 kts | 69° |
| 2026-05-06 13:29 | 30.68615 | -130.24595 | 41269 ft | 488 kts | 69° |
| 2026-05-06 13:29 | 30.70735 | -130.17052 | 41268 ft | 487 kts | 69° |
| 2026-05-06 13:30 | 30.72819 | -130.09621 | 41269 ft | 487 kts | 69° |
| 2026-05-06 13:30 | 30.74916 | -130.02122 | 41270 ft | 486 kts | 69° |
| 2026-05-06 13:31 | 30.76837 | -129.95237 | 41266 ft | 486 kts | 69° |
| 2026-05-06 13:31 | 30.78569 | -129.89018 | 41266 ft | 485 kts | 69° |
| 2026-05-06 13:32 | 30.80642 | -129.81555 | 41262 ft | 485 kts | 69° |
| 2026-05-06 13:32 | 30.83050 | -129.72865 | 41263 ft | 484 kts | 70° |
| 2026-05-06 13:33 | 30.84777 | -129.66613 | 41265 ft | 484 kts | 70° |
| 2026-05-06 13:33 | 30.86823 | -129.59194 | 41266 ft | 484 kts | 70° |
| 2026-05-06 13:34 | 30.88876 | -129.51729 | 41268 ft | 484 kts | 70° |
| 2026-05-06 13:34 | 30.90923 | -129.44265 | 41265 ft | 483 kts | 70° |
| 2026-05-06 13:35 | 30.92966 | -129.36799 | 41266 ft | 483 kts | 70° |
| 2026-05-06 13:35 | 30.95006 | -129.29324 | 41262 ft | 483 kts | 70° |
| 2026-05-06 13:36 | 30.97038 | -129.21861 | 41266 ft | 483 kts | 70° |
| 2026-05-06 13:36 | 30.99053 | -129.14442 | 41267 ft | 483 kts | 70° |
| 2026-05-06 13:37 | 31.01072 | -129.06986 | 41262 ft | 482 kts | 70° |
| 2026-05-06 13:37 | 31.03087 | -128.99530 | 41266 ft | 482 kts | 70° |
| 2026-05-06 13:38 | 31.05098 | -128.92068 | 41263 ft | 481 kts | 70° |
| 2026-05-06 13:38 | 31.07101 | -128.84614 | 41263 ft | 481 kts | 70° |
| 2026-05-06 13:39 | 31.09099 | -128.77162 | 41262 ft | 481 kts | 70° |
| 2026-05-06 13:39 | 31.11090 | -128.69719 | 41261 ft | 480 kts | 70° |
| 2026-05-06 13:40 | 31.13076 | -128.62273 | 41261 ft | 480 kts | 70° |
| 2026-05-06 13:40 | 31.15056 | -128.54832 | 41259 ft | 480 kts | 71° |
| 2026-05-06 13:41 | 31.17029 | -128.47394 | 41261 ft | 479 kts | 71° |
| 2026-05-06 13:41 | 31.18987 | -128.40000 | 41258 ft | 479 kts | 71° |
| 2026-05-06 13:42 | 31.20961 | -128.32523 | 41262 ft | 479 kts | 71° |
| 2026-05-06 13:42 | 31.22903 | -128.25145 | 41258 ft | 478 kts | 71° |
| 2026-05-06 13:43 | 31.24856 | -128.17709 | 41259 ft | 478 kts | 71° |
| 2026-05-06 13:43 | 31.26806 | -128.10267 | 41255 ft | 478 kts | 71° |
| 2026-05-06 13:44 | 31.28748 | -128.02832 | 41256 ft | 478 kts | 71° |
| 2026-05-06 13:44 | 31.30676 | -127.95435 | 41254 ft | 477 kts | 71° |
| 2026-05-06 13:45 | 31.32607 | -127.88005 | 41255 ft | 477 kts | 71° |
| 2026-05-06 13:45 | 31.35497 | -127.76851 | 41254 ft | 477 kts | 71° |
| 2026-05-06 13:46 | 31.37417 | -127.69413 | 41252 ft | 477 kts | 71° |
| 2026-05-06 13:46 | 31.39329 | -127.61988 | 41249 ft | 476 kts | 71° |
| 2026-05-06 13:47 | 31.41235 | -127.54568 | 41254 ft | 476 kts | 71° |
| 2026-05-06 13:47 | 31.43125 | -127.47191 | 41241 ft | 476 kts | 71° |
| 2026-05-06 13:48 | 31.45020 | -127.39774 | 41255 ft | 476 kts | 71° |
| 2026-05-06 13:48 | 31.46912 | -127.32348 | 41259 ft | 475 kts | 71° |
| 2026-05-06 13:49 | 31.48800 | -127.24917 | 41254 ft | 475 kts | 71° |
| 2026-05-06 13:49 | 31.50681 | -127.17497 | 41247 ft | 475 kts | 71° |
| 2026-05-06 13:50 | 31.52555 | -127.10082 | 41248 ft | 475 kts | 71° |
| 2026-05-06 13:50 | 31.54425 | -127.02663 | 41249 ft | 474 kts | 71° |
| 2026-05-06 13:51 | 31.56280 | -126.95287 | 41246 ft | 474 kts | 71° |
| 2026-05-06 13:51 | 31.58139 | -126.87871 | 41247 ft | 474 kts | 71° |
| 2026-05-06 13:52 | 31.59995 | -126.80448 | 41248 ft | 474 kts | 71° |
| 2026-05-06 13:52 | 31.61846 | -126.73025 | 41245 ft | 474 kts | 71° |
| 2026-05-06 13:53 | 31.63681 | -126.65648 | 41244 ft | 473 kts | 72° |
| 2026-05-06 13:53 | 31.65521 | -126.58230 | 41243 ft | 473 kts | 72° |
| 2026-05-06 13:54 | 31.67358 | -126.50802 | 41245 ft | 473 kts | 72° |
| 2026-05-06 13:54 | 31.69189 | -126.43379 | 41245 ft | 473 kts | 72° |
| 2026-05-06 13:55 | 31.71013 | -126.35964 | 41245 ft | 473 kts | 72° |
| 2026-05-06 13:55 | 31.72834 | -126.28542 | 41245 ft | 473 kts | 72° |
| 2026-05-06 13:56 | 31.74641 | -126.21158 | 41242 ft | 472 kts | 72° |
| 2026-05-06 13:56 | 31.76450 | -126.13741 | 41243 ft | 472 kts | 72° |
| 2026-05-06 13:57 | 31.78253 | -126.06332 | 41242 ft | 472 kts | 72° |
| 2026-05-06 13:57 | 31.80053 | -125.98914 | 41238 ft | 472 kts | 72° |
| 2026-05-06 13:58 | 31.81848 | -125.91494 | 41237 ft | 471 kts | 72° |
| 2026-05-06 13:58 | 31.83637 | -125.84078 | 41236 ft | 471 kts | 72° |
| 2026-05-06 13:59 | 31.85420 | -125.76667 | 41235 ft | 471 kts | 72° |
| 2026-05-06 13:59 | 31.87198 | -125.69259 | 41236 ft | 471 kts | 72° |
| 2026-05-06 14:00 | 31.88971 | -125.61849 | 41237 ft | 470 kts | 72° |
| 2026-05-06 14:00 | 31.90731 | -125.54473 | 41239 ft | 470 kts | 72° |
| 2026-05-06 14:01 | 31.92493 | -125.47067 | 41235 ft | 470 kts | 72° |
| 2026-05-06 14:01 | 31.94253 | -125.39646 | 41232 ft | 470 kts | 72° |
| 2026-05-06 14:02 | 31.96008 | -125.32231 | 41231 ft | 470 kts | 72° |
| 2026-05-06 14:02 | 31.97757 | -125.24815 | 41229 ft | 470 kts | 72° |
| 2026-05-06 14:03 | 31.99504 | -125.17389 | 41228 ft | 470 kts | 72° |
| 2026-05-06 14:03 | 32.01248 | -125.09956 | 41225 ft | 470 kts | 72° |
| 2026-05-06 14:04 | 32.02982 | -125.02542 | 41226 ft | 470 kts | 72° |
| 2026-05-06 14:04 | 32.04714 | -124.95113 | 41230 ft | 470 kts | 72° |
| 2026-05-06 14:05 | 32.06429 | -124.87738 | 41226 ft | 469 kts | 72° |
| 2026-05-06 14:05 | 32.08151 | -124.80311 | 41224 ft | 469 kts | 72° |
| 2026-05-06 14:06 | 32.09871 | -124.72873 | 41222 ft | 469 kts | 72° |
| 2026-05-06 14:06 | 32.11586 | -124.65437 | 41224 ft | 469 kts | 72° |
| 2026-05-06 14:07 | 32.13296 | -124.57998 | 41218 ft | 469 kts | 72° |
| 2026-05-06 14:07 | 32.15000 | -124.50563 | 41220 ft | 469 kts | 72° |
| 2026-05-06 14:08 | 32.16687 | -124.43179 | 41209 ft | 469 kts | 72° |
| 2026-05-06 14:08 | 32.18382 | -124.35740 | 41217 ft | 469 kts | 72° |
| 2026-05-06 14:09 | 32.20070 | -124.28313 | 41212 ft | 469 kts | 72° |